Time;durP1;ratioP1;P1;durP2;ratioP2;P2;SDS_P1;SDS_P2;PMS_P1;PMS_P2;Temp;Humidity;BMP_temperature;BMP_pressure;BME280_temperature;BME280_humidity;BME280_pressure;Samples;Min_cycle;Max_cycle;Signal;HPM_P1;HPM_P2
2021/01/27 00:00:59;;;;;;;5.55;4.22;;;0.60;99.90;;;;;;5046161;28;20212;-78
2021/01/27 00:03:28;;;;;;;8.50;5.35;;;0.80;99.90;;;;;;5034782;28;20211;-78
2021/01/27 00:05:55;;;;;;;6.65;5.20;;;0.90;99.90;;;;;;5062570;28;21014;-77
2021/01/27 00:08:23;;;;;;;9.32;6.20;;;0.90;96.60;;;;;;5040447;28;20668;-77
2021/01/27 00:10:50;;;;;;;9.43;5.78;;;1.00;1.00;;;;;;5037089;28;20228;-76
2021/01/27 00:13:19;;;;;;;7.95;5.05;;;0.90;1.00;;;;;;5035317;28;20223;-78
2021/01/27 00:15:49;;;;;;;12.82;6.07;;;0.90;1.00;;;;;;5047101;28;20215;-74
2021/01/27 00:18:18;;;;;;;9.70;6.53;;;0.80;60.90;;;;;;5035473;28;20218;-76
2021/01/27 00:20:47;;;;;;;7.63;5.05;;;0.70;99.90;;;;;;5040617;28;20216;-76
2021/01/27 00:23:14;;;;;;;5.70;4.05;;;0.60;99.90;;;;;;5033536;28;20255;-75
2021/01/27 00:25:41;;;;;;;6.78;4.65;;;0.50;1.00;;;;;;5041591;28;20213;-76
2021/01/27 00:28:09;;;;;;;6.97;5.10;;;0.50;1.00;;;;;;5039561;28;20297;-75
2021/01/27 00:30:38;;;;;;;5.75;4.10;;;0.50;1.00;;;;;;5039734;28;20218;-77
2021/01/27 00:33:07;;;;;;;7.38;5.50;;;0.40;1.00;;;;;;5038294;28;20681;-75
2021/01/27 00:35:38;;;;;;;9.55;5.63;;;0.40;1.00;;;;;;5047995;28;20208;-76
2021/01/27 00:38:11;;;;;;;8.27;4.90;;;0.40;1.00;;;;;;5046619;28;20224;-75
2021/01/27 00:40:39;;;;;;;5.28;4.75;;;0.40;1.00;;;;;;5047866;28;20265;-76
2021/01/27 00:43:06;;;;;;;7.15;4.68;;;0.40;1.00;;;;;;5045534;28;20221;-76
2021/01/27 00:45:34;;;;;;;8.40;5.28;;;0.30;1.00;;;;;;5037220;28;20238;-76
2021/01/27 00:48:01;;;;;;;6.07;5.05;;;0.30;1.00;;;;;;5028771;28;20236;-76
2021/01/27 00:50:28;;;;;;;6.80;4.10;;;0.30;1.00;;;;;;5045677;28;20208;-75
2021/01/27 00:52:55;;;;;;;7.22;6.10;;;0.30;1.00;;;;;;5046970;28;20217;-76
2021/01/27 00:55:25;;;;;;;7.53;4.72;;;0.30;1.00;;;;;;5048065;28;20209;-75
2021/01/27 00:57:53;;;;;;;5.55;4.35;;;0.30;1.00;;;;;;5039116;28;20225;-75
2021/01/27 01:00:23;;;;;;;4.90;4.28;;;0.30;1.00;;;;;;5045879;28;20262;-75
2021/01/27 01:02:51;;;;;;;5.65;4.70;;;0.50;1.00;;;;;;5042997;28;20222;-75
2021/01/27 01:05:21;;;;;;;12.02;5.57;;;0.50;1.00;;;;;;5044418;28;20209;-76
2021/01/27 01:07:51;;;;;;;8.25;5.28;;;0.50;1.00;;;;;;5043492;28;20693;-75
2021/01/27 01:10:24;;;;;;;8.32;6.07;;;0.50;1.00;;;;;;5043605;28;20610;-75
2021/01/27 01:12:52;;;;;;;4.90;4.50;;;0.50;1.00;;;;;;5044090;28;20220;-75
2021/01/27 01:15:20;;;;;;;8.43;5.53;;;0.40;1.00;;;;;;5042466;28;20243;-76
2021/01/27 01:17:47;;;;;;;7.38;4.70;;;0.50;1.00;;;;;;5042354;28;20429;-76
2021/01/27 01:20:15;;;;;;;5.72;4.13;;;0.40;1.00;;;;;;5046752;28;20216;-75
2021/01/27 01:22:45;;;;;;;9.27;5.38;;;0.40;1.00;;;;;;5044864;28;20693;-75
2021/01/27 01:25:14;;;;;;;7.47;4.63;;;0.50;1.00;;;;;;5045049;28;20276;-75
2021/01/27 01:27:43;;;;;;;8.38;5.00;;;0.50;1.00;;;;;;5042275;28;20357;-75
2021/01/27 01:30:16;;;;;;;4.65;3.80;;;0.50;1.00;;;;;;5037092;28;20201;-75
2021/01/27 01:32:43;;;;;;;6.43;4.22;;;0.50;1.00;;;;;;5048056;28;20239;-76
2021/01/27 01:35:12;;;;;;;6.60;4.80;;;0.40;1.00;;;;;;5041189;28;20313;-76
2021/01/27 01:37:41;;;;;;;4.45;4.05;;;0.40;1.00;;;;;;5042829;28;20676;-76
2021/01/27 01:40:11;;;;;;;5.03;4.60;;;0.50;1.00;;;;;;5044360;28;20216;-76
2021/01/27 01:42:39;;;;;;;5.28;4.50;;;0.50;1.00;;;;;;5048837;28;20220;-76
2021/01/27 01:45:19;;;;;;;6.32;4.55;;;0.70;1.00;;;;;;5044313;28;20206;-76
2021/01/27 01:47:46;;;;;;;5.10;4.47;;;0.60;1.00;;;;;;5046448;28;20601;-76
2021/01/27 01:50:14;;;;;;;5.13;4.07;;;0.60;1.00;;;;;;5047416;28;20635;-76
2021/01/27 01:52:41;;;;;;;4.93;4.43;;;0.70;1.00;;;;;;5045639;28;20277;-77
2021/01/27 01:55:09;;;;;;;6.38;4.45;;;0.70;1.00;;;;;;5050982;28;20212;-76
2021/01/27 01:57:36;;;;;;;5.35;4.80;;;0.60;1.00;;;;;;5045656;28;21072;-76
2021/01/27 02:00:08;;;;;;;3.92;3.60;;;0.60;1.00;;;;;;5043706;28;20240;-75
2021/01/27 02:02:37;;;;;;;6.60;3.72;;;0.60;1.00;;;;;;5045741;28;20684;-76
2021/01/27 02:05:09;;;;;;;4.78;4.07;;;0.50;1.00;;;;;;5049276;28;20250;-75
2021/01/27 02:07:36;;;;;;;5.03;3.92;;;0.50;1.00;;;;;;5046293;28;20224;-76
2021/01/27 02:10:05;;;;;;;8.70;3.80;;;0.50;1.00;;;;;;5046639;28;20270;-75
2021/01/27 02:12:49;;;;;;;4.18;3.88;;;0.50;1.00;;;;;;5045934;28;20225;-76
2021/01/27 02:15:35;;;;;;;4.82;3.97;;;0.50;1.00;;;;;;5043771;28;20205;-76
2021/01/27 02:18:09;;;;;;;6.53;4.25;;;0.50;1.00;;;;;;5051045;28;20698;-75
2021/01/27 02:21:02;;;;;;;6.20;4.60;;;0.50;1.00;;;;;;5044315;28;20221;-76
2021/01/27 02:23:59;;;;;;;6.25;4.47;;;0.40;1.00;;;;;;5054989;28;20225;-75
2021/01/27 02:26:48;;;;;;;7.85;4.80;;;0.30;1.00;;;;;;5046549;28;20319;-76
2021/01/27 02:29:49;;;;;;;6.28;4.78;;;0.20;1.00;;;;;;5031850;28;20219;-76
2021/01/27 02:33:00;;;;;;;5.32;4.53;;;0.20;1.00;;;;;;5049350;28;20692;-75
2021/01/27 02:35:33;;;;;;;4.32;3.92;;;0.20;1.00;;;;;;5043270;28;20219;-75
2021/01/27 02:38:04;;;;;;;3.97;3.58;;;0.20;1.00;;;;;;5057314;28;20225;-76
2021/01/27 02:40:36;;;;;;;6.82;4.43;;;0.20;1.00;;;;;;5047273;28;20965;-75
2021/01/27 02:43:11;;;;;;;4.85;3.53;;;0.20;1.00;;;;;;5049687;28;20271;-73
2021/01/27 02:45:44;;;;;;;4.22;3.83;;;0.20;1.00;;;;;;5042773;28;20215;-75
2021/01/27 02:48:16;;;;;;;4.18;3.78;;;0.20;1.00;;;;;;5050891;28;20244;-74
2021/01/27 02:50:49;;;;;;;5.05;4.18;;;0.20;1.00;;;;;;5043384;28;20213;-75
2021/01/27 02:53:20;;;;;;;4.70;4.03;;;0.30;1.00;;;;;;5050854;28;20230;-75
2021/01/27 02:55:53;;;;;;;4.30;3.90;;;0.30;1.00;;;;;;5038725;28;20225;-75
2021/01/27 02:58:25;;;;;;;5.25;3.50;;;0.20;1.00;;;;;;5044246;28;20219;-75
2021/01/27 03:00:59;;;;;;;4.47;3.38;;;0.20;1.00;;;;;;5044641;28;20213;-75
2021/01/27 03:03:31;;;;;;;4.30;3.85;;;0.20;1.00;;;;;;5051725;28;20308;-75
2021/01/27 03:06:04;;;;;;;5.30;3.83;;;0.40;1.00;;;;;;5047264;28;20231;-75
2021/01/27 03:08:35;;;;;;;3.83;3.50;;;0.50;1.00;;;;;;5046620;28;20235;-75
2021/01/27 03:11:07;;;;;;;6.13;3.58;;;0.60;1.00;;;;;;5049363;28;20695;-75
2021/01/27 03:13:36;;;;;;;5.63;3.47;;;0.50;1.00;;;;;;5045753;28;20216;-74
2021/01/27 03:16:07;;;;;;;4.50;3.28;;;0.50;1.00;;;;;;5044648;28;20212;-74
2021/01/27 03:18:38;;;;;;;4.60;3.90;;;0.40;1.00;;;;;;5043682;28;20243;-75
2021/01/27 03:21:12;;;;;;;4.35;2.92;;;0.40;1.00;;;;;;5043393;28;20224;-75
2021/01/27 03:23:43;;;;;;;6.50;3.70;;;0.40;1.00;;;;;;5047985;28;20225;-75
2021/01/27 03:26:18;;;;;;;4.50;3.33;;;0.50;1.00;;;;;;5049026;28;20233;-76
2021/01/27 03:28:53;;;;;;;4.43;3.00;;;0.50;1.00;;;;;;5043272;28;20647;-75
2021/01/27 03:31:20;;;;;;;3.90;3.55;;;0.60;1.00;;;;;;5038569;28;20200;-74
2021/01/27 03:33:53;;;;;;;6.13;3.55;;;0.70;99.90;;;;;;5049545;28;20212;-74
2021/01/27 03:36:22;;;;;;;3.53;3.13;;;0.70;99.90;;;;;;5036265;28;20241;-75
2021/01/27 03:38:51;;;;;;;3.75;3.45;;;0.70;99.90;;;;;;5045372;28;20225;-74
2021/01/27 03:41:22;;;;;;;3.13;2.90;;;0.80;99.90;;;;;;5045628;28;20205;-74
2021/01/27 03:44:00;;;;;;;3.65;3.20;;;0.80;99.90;;;;;;5045142;28;20243;-74
2021/01/27 03:46:30;;;;;;;3.08;2.55;;;0.90;92.80;;;;;;5041841;28;20239;-74
2021/01/27 03:49:02;;;;;;;4.45;3.03;;;1.00;1.00;;;;;;5042575;28;20230;-74
2021/01/27 03:51:35;;;;;;;3.25;2.92;;;1.10;1.00;;;;;;5037392;28;20227;-75
2021/01/27 03:54:06;;;;;;;2.63;2.40;;;1.10;99.90;;;;;;5045910;28;20221;-75
2021/01/27 03:56:42;;;;;;;3.22;2.80;;;1.20;99.90;;;;;;5042836;28;20234;-76
2021/01/27 03:59:10;;;;;;;4.03;3.20;;;1.30;1.00;;;;;;5031122;28;20817;-76
2021/01/27 04:01:48;;;;;;;4.57;3.05;;;1.20;99.90;;;;;;5041129;28;20224;-76
2021/01/27 04:04:16;;;;;;;3.88;3.13;;;1.20;1.00;;;;;;5047131;28;20208;-76
2021/01/27 04:06:44;;;;;;;5.20;3.03;;;1.10;95.80;;;;;;5050432;28;20232;-75
2021/01/27 04:09:12;;;;;;;2.67;2.47;;;1.10;1.00;;;;;;5043381;28;20218;-76
2021/01/27 04:11:39;;;;;;;4.72;2.90;;;0.90;1.00;;;;;;5038680;28;20227;-76
2021/01/27 04:14:07;;;;;;;3.47;2.30;;;0.80;99.90;;;;;;5044680;28;20677;-76
2021/01/27 04:16:34;;;;;;;3.03;2.45;;;0.80;99.90;;;;;;5038626;28;20247;-76
2021/01/27 04:19:04;;;;;;;3.15;2.63;;;0.80;99.90;;;;;;5042714;28;20811;-74
2021/01/27 04:21:31;;;;;;;3.28;2.50;;;0.90;99.90;;;;;;5041971;28;20212;-75
2021/01/27 04:24:00;;;;;;;3.45;2.15;;;0.70;94.40;;;;;;5044333;28;20222;-75
2021/01/27 04:26:27;;;;;;;3.95;2.05;;;0.70;1.00;;;;;;5046811;28;20647;-76
2021/01/27 04:28:54;;;;;;;3.22;2.10;;;0.70;1.00;;;;;;5041000;28;20222;-75
2021/01/27 04:31:21;;;;;;;8.75;2.38;;;0.70;1.00;;;;;;5038958;28;20278;-75
2021/01/27 04:33:49;;;;;;;2.15;1.95;;;0.70;99.90;;;;;;5035499;28;20218;-75
2021/01/27 04:36:17;;;;;;;3.40;3.10;;;0.60;1.00;;;;;;5034205;28;20283;-75
2021/01/27 04:38:44;;;;;;;2.72;2.50;;;0.70;1.00;;;;;;5039054;28;20269;-75
2021/01/27 04:41:12;;;;;;;3.03;2.55;;;0.60;1.00;;;;;;5047179;28;20220;-75
2021/01/27 04:43:42;;;;;;;2.85;2.17;;;0.50;18.50;;;;;;5043560;28;20806;-75
2021/01/27 04:46:16;;;;;;;3.85;2.80;;;0.50;99.90;;;;;;5035342;28;20213;-74
2021/01/27 04:48:53;;;;;;;2.83;2.33;;;0.50;99.90;;;;;;5043535;28;20224;-75
2021/01/27 04:51:25;;;;;;;4.82;2.85;;;0.50;97.40;;;;;;5043556;28;20662;-77
2021/01/27 04:54:10;;;;;;;3.75;2.72;;;0.50;99.90;;;;;;5047024;28;20214;-75
2021/01/27 04:57:17;;;;;;;4.47;3.05;;;0.60;1.00;;;;;;5037426;28;20236;-75
2021/01/27 05:00:03;;;;;;;3.33;2.08;;;0.60;1.00;;;;;;5026730;28;20221;-75
2021/01/27 05:02:46;;;;;;;2.72;2.22;;;0.60;1.00;;;;;;5045758;28;20579;-75
2021/01/27 05:05:18;;;;;;;5.43;2.72;;;0.70;99.90;;;;;;5041122;28;20495;-76
2021/01/27 05:07:56;;;;;;;2.83;2.53;;;0.60;1.00;;;;;;5047158;28;20232;-75
2021/01/27 05:10:29;;;;;;;4.63;2.55;;;0.60;1.00;;;;;;5043044;28;20211;-75
2021/01/27 05:13:03;;;;;;;5.10;2.15;;;0.60;1.00;;;;;;5046312;28;20250;-75
2021/01/27 05:15:30;;;;;;;3.60;2.50;;;0.80;99.90;;;;;;5042713;28;20210;-75
2021/01/27 05:17:58;;;;;;;2.85;2.13;;;0.90;99.90;;;;;;5047788;28;20273;-75
2021/01/27 05:20:30;;;;;;;3.00;2.72;;;0.90;99.90;;;;;;5041631;28;20204;-75
2021/01/27 05:22:58;;;;;;;3.10;2.80;;;0.90;99.90;;;;;;5050098;28;20263;-75
2021/01/27 05:25:39;;;;;;;2.33;2.13;;;1.00;99.90;;;;;;5052690;28;20224;-75
2021/01/27 05:28:12;;;;;;;4.00;2.80;;;0.90;1.00;;;;;;5055829;28;20224;-76
2021/01/27 05:30:49;;;;;;;2.40;2.20;;;1.00;99.90;;;;;;5050893;28;20212;-76
2021/01/27 05:33:16;;;;;;;2.58;1.65;;;0.90;99.90;;;;;;5049504;28;20212;-74
2021/01/27 05:35:45;;;;;;;2.75;1.95;;;0.90;99.90;;;;;;5046491;28;20299;-76
2021/01/27 05:38:24;;;;;;;2.53;1.83;;;0.90;99.90;;;;;;5048060;28;20228;-76
2021/01/27 05:41:02;;;;;;;3.15;1.90;;;0.90;99.90;;;;;;5033595;28;20720;-76
2021/01/27 05:43:30;;;;;;;3.40;2.45;;;0.90;1.00;;;;;;5061081;28;20480;-75
2021/01/27 05:46:10;;;;;;;2.60;2.20;;;1.10;99.90;;;;;;5047102;28;20490;-75
2021/01/27 05:48:49;;;;;;;3.65;2.83;;;1.10;1.00;;;;;;5049021;28;20892;-75
2021/01/27 05:51:28;;;;;;;2.30;2.10;;;1.20;1.00;;;;;;5040046;28;20236;-76
2021/01/27 05:53:56;;;;;;;2.45;1.95;;;1.30;1.00;;;;;;5047361;28;20212;-76
2021/01/27 05:56:25;;;;;;;5.20;2.20;;;1.30;1.00;;;;;;5046911;28;20239;-76
2021/01/27 05:58:59;;;;;;;4.35;2.00;;;1.20;99.90;;;;;;5054368;28;20215;-75
2021/01/27 06:01:39;;;;;;;5.45;2.40;;;1.30;99.90;;;;;;5043778;28;20299;-78
2021/01/27 06:04:21;;;;;;;2.90;2.60;;;1.20;1.00;;;;;;5053064;28;20523;-75
2021/01/27 06:07:01;;;;;;;4.72;2.30;;;1.20;1.00;;;;;;5043245;28;20229;-77
2021/01/27 06:09:49;;;;;;;2.22;1.98;;;1.30;99.90;;;;;;5044383;28;20756;-76
2021/01/27 06:12:28;;;;;;;3.63;3.30;;;1.30;99.90;;;;;;5037305;28;20232;-74
2021/01/27 06:15:14;;;;;;;4.30;2.10;;;1.30;1.00;;;;;;5040647;28;20215;-74
2021/01/27 06:17:44;;;;;;;2.25;1.73;;;1.00;34.10;;;;;;5039325;28;20261;-76
2021/01/27 06:20:33;;;;;;;1.90;1.42;;;0.90;99.90;;;;;;5040607;28;20211;-74
2021/01/27 06:23:22;;;;;;;2.05;1.92;;;0.80;1.00;;;;;;5033498;28;20214;-74
2021/01/27 06:26:02;;;;;;;2.92;1.80;;;0.90;99.90;;;;;;5041198;28;20217;-74
2021/01/27 06:28:59;;;;;;;2.05;1.75;;;0.90;99.30;;;;;;5044161;28;20312;-73
2021/01/27 06:31:54;;;;;;;3.25;2.65;;;1.00;99.90;;;;;;5040176;28;20299;-75
2021/01/27 06:34:54;;;;;;;3.08;1.95;;;1.00;99.90;;;;;;5037057;28;20220;-73
2021/01/27 06:37:38;;;;;;;2.28;2.08;;;1.10;79.90;;;;;;5030280;28;20255;-73
2021/01/27 06:40:34;;;;;;;2.92;2.30;;;1.30;99.90;;;;;;5043904;28;20209;-73
2021/01/27 06:43:49;;;;;;;2.63;1.70;;;1.20;1.00;;;;;;5020942;28;20737;-74
2021/01/27 06:46:41;;;;;;;3.53;2.15;;;1.10;99.90;;;;;;4988605;28;20254;-76
2021/01/27 06:49:51;;;;;;;4.82;3.13;;;0.90;1.00;;;;;;5033321;28;20612;-74
2021/01/27 06:52:54;;;;;;;3.03;2.13;;;0.90;1.00;;;;;;5040082;28;20219;-76
2021/01/27 06:55:31;;;;;;;2.50;1.90;;;0.90;99.90;;;;;;5017423;28;21023;-74
2021/01/27 06:58:11;;;;;;;2.88;2.08;;;0.90;1.00;;;;;;5046253;28;20326;-72
2021/01/27 07:00:48;;;;;;;2.65;2.33;;;0.90;1.00;;;;;;5042024;28;20220;-74
2021/01/27 07:04:06;;;;;;;2.75;2.53;;;1.00;99.90;;;;;;5030748;28;20270;-74
2021/01/27 07:07:03;;;;;;;3.33;2.30;;;0.90;1.00;;;;;;5034827;28;20232;-73
2021/01/27 07:10:04;;;;;;;4.10;2.08;;;0.90;1.00;;;;;;5009169;28;20677;-75
2021/01/27 07:12:37;;;;;;;2.13;1.92;;;0.80;1.00;;;;;;5033589;28;20747;-72
2021/01/27 07:15:31;;;;;;;2.78;2.05;;;0.90;1.00;;;;;;5041847;28;20318;-74
2021/01/27 07:18:17;;;;;;;2.28;1.80;;;0.90;1.00;;;;;;5039948;28;20234;-74
2021/01/27 07:20:49;;;;;;;3.20;2.85;;;1.00;1.00;;;;;;5025012;28;20241;-71
2021/01/27 07:23:23;;;;;;;3.47;2.15;;;1.10;99.90;;;;;;5026762;28;20680;-73
2021/01/27 07:26:01;;;;;;;2.50;1.98;;;1.00;99.90;;;;;;5026460;28;20228;-76
2021/01/27 07:28:36;;;;;;;2.50;2.30;;;1.10;99.90;;;;;;5030676;28;20667;-74
2021/01/27 07:31:15;;;;;;;2.28;1.80;;;1.10;6.70;;;;;;5036231;28;20322;-71
2021/01/27 07:33:50;;;;;;;2.70;2.08;;;1.10;99.90;;;;;;5039922;28;20289;-74
2021/01/27 07:36:33;;;;;;;1.90;1.80;;;0.90;1.00;;;;;;5040481;28;20235;-74
2021/01/27 07:39:05;;;;;;;1.70;1.60;;;1.00;99.90;;;;;;5032367;28;20750;-74
2021/01/27 07:41:44;;;;;;;3.40;1.77;;;0.90;99.90;;;;;;5043972;28;20198;-74
2021/01/27 07:44:16;;;;;;;2.17;1.98;;;0.90;1.00;;;;;;5040188;28;20553;-75
2021/01/27 07:46:49;;;;;;;2.75;2.30;;;0.90;1.00;;;;;;5040686;28;20232;-71
2021/01/27 07:49:25;;;;;;;3.13;1.80;;;0.90;1.00;;;;;;5039379;28;20869;-77
2021/01/27 07:51:58;;;;;;;5.13;2.00;;;0.90;1.00;;;;;;5039693;28;20207;-73
2021/01/27 07:54:31;;;;;;;4.93;2.25;;;0.80;1.00;;;;;;5037274;28;20378;-72
2021/01/27 07:57:04;;;;;;;2.50;2.20;;;0.90;1.00;;;;;;5029826;28;20737;-74
2021/01/27 07:59:41;;;;;;;3.20;2.90;;;0.80;1.00;;;;;;5035786;28;20216;-75
2021/01/27 08:02:12;;;;;;;3.15;2.60;;;0.80;1.00;;;;;;5032833;28;20229;-75
2021/01/27 08:04:44;;;;;;;6.65;3.22;;;0.70;1.00;;;;;;5037814;28;20235;-71
2021/01/27 08:07:22;;;;;;;3.47;2.90;;;0.70;1.00;;;;;;5038868;28;20303;-74
2021/01/27 08:09:51;;;;;;;2.47;2.28;;;0.80;1.00;;;;;;5040189;28;20269;-74
2021/01/27 08:12:20;;;;;;;2.58;2.38;;;0.60;1.00;;;;;;5042874;28;20224;-75
2021/01/27 08:15:01;;;;;;;3.70;2.33;;;0.60;1.00;;;;;;5046402;28;20665;-71
2021/01/27 08:18:00;;;;;;;2.75;2.55;;;0.60;1.00;;;;;;5037457;28;20238;-74
2021/01/27 08:20:32;;;;;;;2.92;2.55;;;0.50;1.00;;;;;;5042665;28;20312;-75
2021/01/27 08:23:01;;;;;;;2.40;2.20;;;0.40;1.00;;;;;;5039284;28;20237;-72
2021/01/27 08:25:48;;;;;;;3.85;2.92;;;0.40;1.50;;;;;;5036187;28;20598;-75
2021/01/27 08:28:22;;;;;;;5.43;3.45;;;0.50;1.00;;;;;;5039427;28;20298;-74
2021/01/27 08:31:16;;;;;;;6.68;2.63;;;0.60;1.80;;;;;;5039577;28;20211;-72
2021/01/27 08:33:58;;;;;;;2.33;2.13;;;0.70;2.20;;;;;;5038720;28;20223;-74
2021/01/27 08:37:01;;;;;;;3.25;2.72;;;0.60;1.00;;;;;;5037937;28;20282;-73
2021/01/27 08:39:32;;;;;;;2.40;2.20;;;0.70;1.00;;;;;;5037296;28;20212;-74
2021/01/27 08:42:01;;;;;;;4.22;2.67;;;0.70;1.00;;;;;;5037941;28;20206;-73
2021/01/27 08:44:34;;;;;;;2.70;2.42;;;0.70;1.00;;;;;;5044183;28;20250;-72
2021/01/27 08:47:18;;;;;;;2.45;1.85;;;0.60;1.00;;;;;;5030413;28;20226;-74
2021/01/27 08:49:57;;;;;;;3.05;2.75;;;0.60;11.80;;;;;;5044443;28;20288;-72
2021/01/27 08:52:52;;;;;;;3.72;2.90;;;0.50;19.10;;;;;;5036984;28;20198;-73
2021/01/27 08:55:51;;;;;;;3.60;2.40;;;0.70;26.70;;;;;;5029078;28;20276;-74
2021/01/27 08:58:28;;;;;;;4.40;2.45;;;0.80;30.20;;;;;;5044536;28;20262;-73
2021/01/27 09:00:57;;;;;;;2.72;2.53;;;0.60;15.20;;;;;;5042427;28;20258;-74
2021/01/27 09:03:57;;;;;;;3.65;3.15;;;0.50;30.80;;;;;;5037036;28;20216;-75
2021/01/27 09:06:40;;;;;;;2.67;2.45;;;0.40;34.10;;;;;;5035409;28;20240;-72
2021/01/27 09:09:23;;;;;;;3.00;2.70;;;0.30;60.80;;;;;;5042849;28;20266;-71
2021/01/27 09:11:57;;;;;;;2.85;2.65;;;0.20;73.10;;;;;;5034034;28;20209;-72
2021/01/27 09:14:24;;;;;;;3.55;2.55;;;0.10;76.40;;;;;;5043143;28;20216;-73
2021/01/27 09:16:52;;;;;;;3.08;2.70;;;0.10;87.60;;;;;;5039876;28;20240;-71
2021/01/27 09:19:21;;;;;;;2.30;2.10;;;0.10;91.30;;;;;;5040277;28;20575;-74
2021/01/27 09:22:12;;;;;;;2.30;2.10;;;0.10;92.30;;;;;;5031552;28;20240;-72
2021/01/27 09:24:44;;;;;;;2.60;2.40;;;0.00;91.80;;;;;;5031660;28;20217;-74
2021/01/27 09:27:22;;;;;;;3.28;2.97;;;0.00;94.30;;;;;;5034224;28;20269;-74
2021/01/27 09:30:01;;;;;;;3.90;2.50;;;0.10;97.60;;;;;;5037965;28;20795;-74
2021/01/27 09:32:31;;;;;;;2.70;2.50;;;0.00;95.40;;;;;;5036856;28;20218;-72
2021/01/27 09:35:09;;;;;;;3.58;2.90;;;0.00;95.30;;;;;;5039426;28;20209;-74
2021/01/27 09:37:48;;;;;;;3.03;2.55;;;0.00;99.60;;;;;;5032340;28;20224;-73
2021/01/27 09:40:25;;;;;;;3.03;2.80;;;0.10;99.90;;;;;;5032582;28;20204;-73
2021/01/27 09:42:57;;;;;;;3.47;2.55;;;0.20;98.20;;;;;;5037110;28;20294;-73
2021/01/27 09:45:29;;;;;;;3.60;1.83;;;0.20;94.10;;;;;;5046311;28;20215;-73
2021/01/27 09:47:57;;;;;;;3.28;2.63;;;0.20;88.80;;;;;;5034826;28;20241;-72
2021/01/27 09:50:25;;;;;;;3.45;2.33;;;0.30;90.90;;;;;;5040205;28;20230;-72
2021/01/27 09:52:56;;;;;;;2.72;2.33;;;0.20;86.00;;;;;;5038585;28;20207;-73
2021/01/27 09:55:25;;;;;;;2.65;2.45;;;0.20;86.90;;;;;;5039637;28;20218;-73
2021/01/27 09:57:55;;;;;;;2.60;2.30;;;0.10;90.60;;;;;;5045075;28;20302;-73
2021/01/27 10:00:30;;;;;;;3.28;2.33;;;0.10;92.90;;;;;;5038883;28;20225;-72
2021/01/27 10:03:12;;;;;;;2.45;2.10;;;0.10;97.20;;;;;;5038905;28;20218;-73
2021/01/27 10:05:41;;;;;;;2.55;1.83;;;0.10;99.10;;;;;;5043649;28;20200;-72
2021/01/27 10:08:17;;;;;;;1.50;1.40;;;0.10;95.30;;;;;;5040896;28;20243;-72
2021/01/27 10:11:05;;;;;;;1.63;1.30;;;0.10;96.90;;;;;;5044224;28;20817;-71
2021/01/27 10:13:35;;;;;;;2.97;2.30;;;0.10;90.30;;;;;;5040757;28;20578;-72
2021/01/27 10:16:06;;;;;;;2.10;1.83;;;0.10;98.30;;;;;;5035335;28;20589;-72
2021/01/27 10:18:34;;;;;;;3.33;2.70;;;0.20;99.90;;;;;;5040816;28;20212;-72
2021/01/27 10:21:03;;;;;;;1.67;1.58;;;0.30;99.90;;;;;;5040566;28;20228;-72
2021/01/27 10:23:37;;;;;;;1.95;1.83;;;0.30;97.40;;;;;;5040472;28;20216;-71
2021/01/27 10:26:39;;;;;;;3.28;1.85;;;0.40;95.90;;;;;;5041985;28;20281;-71
2021/01/27 10:29:26;;;;;;;2.40;1.40;;;0.50;82.90;;;;;;5036307;28;20256;-72
2021/01/27 10:31:56;;;;;;;1.50;1.33;;;0.50;81.20;;;;;;5036912;28;20228;-72
2021/01/27 10:34:41;;;;;;;2.42;1.55;;;0.50;69.50;;;;;;5039447;28;20220;-72
2021/01/27 10:37:27;;;;;;;1.52;1.40;;;0.50;57.30;;;;;;5040312;28;20233;-72
2021/01/27 10:40:23;;;;;;;1.67;1.35;;;0.60;54.20;;;;;;5032384;28;20196;-72
2021/01/27 10:42:53;;;;;;;1.67;1.30;;;0.60;54.50;;;;;;5039800;28;20494;-71
2021/01/27 10:45:36;;;;;;;2.10;1.60;;;0.50;46.80;;;;;;5044966;28;20954;-72
2021/01/27 10:48:15;;;;;;;2.45;1.30;;;0.60;55.90;;;;;;5047061;28;20247;-73
2021/01/27 10:50:44;;;;;;;2.90;1.20;;;0.70;43.20;;;;;;5041187;28;20255;-72
2021/01/27 10:53:29;;;;;;;1.50;1.40;;;0.70;34.00;;;;;;5039934;28;20213;-71
2021/01/27 10:55:57;;;;;;;1.23;1.17;;;0.80;38.50;;;;;;5046644;28;20212;-72
2021/01/27 10:58:25;;;;;;;2.55;1.30;;;0.80;25.00;;;;;;5044943;28;20211;-72
2021/01/27 11:00:52;;;;;;;2.45;1.10;;;0.90;30.20;;;;;;5043074;28;20221;-72
2021/01/27 11:03:20;;;;;;;1.65;1.40;;;1.00;31.90;;;;;;5046319;28;20220;-71
2021/01/27 11:05:48;;;;;;;1.55;1.10;;;1.10;21.20;;;;;;5044678;28;20224;-72
2021/01/27 11:08:23;;;;;;;1.48;1.30;;;0.90;1.00;;;;;;5042028;28;20225;-72
2021/01/27 11:10:53;;;;;;;1.25;1.08;;;0.90;1.00;;;;;;5040097;28;20208;-72
2021/01/27 11:13:20;;;;;;;1.00;1.00;;;1.00;1.00;;;;;;5033731;28;20210;-73
2021/01/27 11:15:48;;;;;;;0.93;0.93;;;0.90;1.00;;;;;;5037976;28;20219;-72
2021/01/27 11:18:15;;;;;;;3.38;1.15;;;0.80;11.60;;;;;;5039370;28;20225;-73
2021/01/27 11:20:45;;;;;;;2.55;0.90;;;0.80;3.80;;;;;;5045199;28;20270;-75
2021/01/27 11:23:12;;;;;;;0.88;0.88;;;0.90;1.00;;;;;;5042895;28;20233;-72
2021/01/27 11:25:40;;;;;;;2.25;1.05;;;0.80;1.00;;;;;;5044003;28;20214;-72
2021/01/27 11:28:07;;;;;;;1.30;0.93;;;0.80;1.00;;;;;;5039354;28;20229;-73
2021/01/27 11:30:34;;;;;;;1.58;1.10;;;0.80;1.00;;;;;;5039464;28;20250;-71
2021/01/27 11:33:01;;;;;;;1.75;1.30;;;0.70;6.70;;;;;;5043716;28;20215;-72
2021/01/27 11:35:29;;;;;;;1.25;1.00;;;0.90;31.10;;;;;;5038607;28;20207;-73
2021/01/27 11:37:57;;;;;;;2.25;1.10;;;0.90;35.00;;;;;;5035667;28;20228;-73
2021/01/27 11:40:26;;;;;;;1.25;1.13;;;0.90;7.30;;;;;;5044626;28;20601;-72
2021/01/27 11:42:54;;;;;;;1.48;1.20;;;1.00;5.00;;;;;;5044664;28;20215;-72
2021/01/27 11:45:23;;;;;;;1.42;1.30;;;1.00;1.00;;;;;;5045372;28;20200;-71
2021/01/27 11:47:50;;;;;;;1.20;1.10;;;1.00;1.00;;;;;;5035142;28;20223;-71
2021/01/27 11:50:22;;;;;;;1.65;1.30;;;0.80;1.00;;;;;;5039089;28;20241;-72
2021/01/27 11:52:49;;;;;;;1.48;1.38;;;0.70;10.20;;;;;;5044758;28;20828;-71
2021/01/27 11:55:20;;;;;;;2.15;1.15;;;0.90;22.00;;;;;;5041546;28;20204;-71
2021/01/27 11:57:47;;;;;;;1.13;1.00;;;0.80;21.80;;;;;;5041813;28;20219;-72
2021/01/27 12:00:16;;;;;;;1.30;1.20;;;0.80;27.00;;;;;;5050638;28;20209;-71
2021/01/27 12:02:44;;;;;;;1.20;1.10;;;0.80;21.70;;;;;;5038122;28;20212;-70
2021/01/27 12:05:13;;;;;;;1.30;1.20;;;0.70;23.70;;;;;;5041741;28;20204;-72
2021/01/27 12:07:40;;;;;;;1.63;1.50;;;0.70;35.40;;;;;;5038640;28;20731;-71
2021/01/27 12:10:09;;;;;;;1.88;1.77;;;0.90;45.90;;;;;;5033116;28;20201;-72
2021/01/27 12:12:37;;;;;;;1.40;1.30;;;1.00;43.00;;;;;;5042192;28;20224;-71
2021/01/27 12:15:05;;;;;;;1.63;1.35;;;1.10;31.80;;;;;;5043137;28;20847;-72
2021/01/27 12:17:33;;;;;;;1.70;1.20;;;1.20;37.70;;;;;;5037943;28;20311;-71
2021/01/27 12:20:00;;;;;;;1.25;1.15;;;1.10;20.40;;;;;;5032185;28;20222;-71
2021/01/27 12:22:27;;;;;;;1.35;1.13;;;1.00;17.10;;;;;;5035530;28;20254;-71
2021/01/27 12:24:54;;;;;;;1.20;1.08;;;0.80;40.50;;;;;;5045082;28;20208;-71
2021/01/27 12:27:21;;;;;;;1.33;1.23;;;0.80;54.40;;;;;;5034115;28;20240;-73
2021/01/27 12:29:49;;;;;;;1.30;1.20;;;0.90;60.70;;;;;;5033925;28;20324;-72
2021/01/27 12:32:17;;;;;;;1.30;1.20;;;0.90;53.20;;;;;;5036893;28;21008;-72
2021/01/27 12:34:44;;;;;;;2.75;1.38;;;0.80;65.40;;;;;;5039853;28;20251;-72
2021/01/27 12:37:11;;;;;;;1.30;1.20;;;0.70;79.60;;;;;;5044526;28;20282;-72
2021/01/27 12:39:39;;;;;;;1.88;1.75;;;0.70;93.50;;;;;;5039929;28;20219;-72
2021/01/27 12:42:07;;;;;;;2.72;1.90;;;0.80;99.90;;;;;;5041475;28;20225;-71
2021/01/27 12:44:43;;;;;;;1.92;1.55;;;0.80;96.20;;;;;;5038531;28;20349;-73
2021/01/27 12:47:11;;;;;;;2.13;1.45;;;0.90;91.60;;;;;;5034755;28;20249;-71
2021/01/27 12:49:40;;;;;;;1.92;1.10;;;0.90;81.70;;;;;;5037924;28;20234;-72
2021/01/27 12:52:07;;;;;;;1.67;1.48;;;0.90;73.90;;;;;;5035856;28;20975;-73
2021/01/27 12:54:35;;;;;;;1.63;1.52;;;0.80;56.00;;;;;;5042014;28;20316;-72
2021/01/27 12:57:02;;;;;;;1.38;1.27;;;0.80;64.40;;;;;;5038758;28;20811;-72
2021/01/27 12:59:29;;;;;;;4.20;1.60;;;0.90;48.90;;;;;;5036109;28;20199;-72
2021/01/27 13:01:56;;;;;;;1.60;1.45;;;0.80;43.30;;;;;;5043067;28;20209;-73
2021/01/27 13:04:25;;;;;;;2.08;1.55;;;0.90;49.10;;;;;;5041541;28;20217;-72
2021/01/27 13:06:52;;;;;;;2.08;1.75;;;0.90;48.20;;;;;;5044071;28;20224;-72
2021/01/27 13:09:19;;;;;;;1.83;1.60;;;1.00;32.50;;;;;;5036387;28;20240;-73
2021/01/27 13:11:51;;;;;;;2.03;1.77;;;1.00;24.70;;;;;;5039168;28;20302;-74
2021/01/27 13:14:19;;;;;;;1.65;1.40;;;1.00;23.40;;;;;;5034049;28;20221;-74
2021/01/27 13:16:47;;;;;;;1.73;1.63;;;1.10;14.70;;;;;;5044001;28;20237;-74
2021/01/27 13:19:15;;;;;;;2.17;1.98;;;1.10;18.80;;;;;;5035400;28;20200;-74
2021/01/27 13:21:44;;;;;;;1.70;1.60;;;1.30;13.80;;;;;;5037355;28;20638;-75
2021/01/27 13:24:11;;;;;;;1.60;1.50;;;1.20;1.00;;;;;;5044085;28;20231;-73
2021/01/27 13:26:40;;;;;;;1.80;1.70;;;1.20;1.00;;;;;;5046719;28;20250;-74
2021/01/27 13:29:07;;;;;;;2.10;1.90;;;1.30;1.00;;;;;;5035651;28;20258;-74
2021/01/27 13:31:34;;;;;;;2.05;1.85;;;1.20;1.00;;;;;;5037198;28;20274;-73
2021/01/27 13:34:03;;;;;;;2.35;2.15;;;1.10;1.00;;;;;;5039909;28;20220;-74
2021/01/27 13:36:30;;;;;;;2.15;1.70;;;1.00;1.00;;;;;;5040501;28;20244;-73
2021/01/27 13:38:58;;;;;;;1.80;1.70;;;1.00;1.00;;;;;;5046537;28;20216;-74